Search for airport 
image banner adimage banner adimage banner ad
image banner ad

PA60 - Chambersburg Hospital

Located in Chambersburg, United States

ICAO - PA60, IATA -

Data provided by Airmate  

General information

Coordinates: N39°55'59" W77°38'45"
Elevation is 640 feet MSL.
Magnetic variation is -09° East
View others Airports in Pennsylvania

Operational data

Special qualification required
Current time UTC:
Current local time:
METAR: KHGR 152253Z 31011KT 10SM BKN095 23/12 A2985 RMK AO2 SLP113 T02330122 $
View NOTAMs / SUP AIP / TFR affecting this airport [VIEW]
Communications frequencies: [VIEW]

Runways:

Airport contact information

Address: Chambersburg United States

Satellite view of PA60